sensor_id;sensor_type;location;lat;lon;timestamp;temperature;humidity
47434;SHT31;33184;48.774;8.918;2023-04-27T00:02:45;7.74;73.89
47434;SHT31;33184;48.774;8.918;2023-04-27T00:08:06;7.69;73.99
47434;SHT31;33184;48.774;8.918;2023-04-27T00:13:26;7.79;73.96
47434;SHT31;33184;48.774;8.918;2023-04-27T00:18:47;7.82;73.99
47434;SHT31;33184;48.774;8.918;2023-04-27T00:24:08;7.72;74.66
47434;SHT31;33184;48.774;8.918;2023-04-27T00:29:28;7.65;74.98
47434;SHT31;33184;48.774;8.918;2023-04-27T00:34:49;7.58;74.85
47434;SHT31;33184;48.774;8.918;2023-04-27T00:40:10;7.55;74.86
47434;SHT31;33184;48.774;8.918;2023-04-27T00:45:31;7.45;75.37
47434;SHT31;33184;48.774;8.918;2023-04-27T00:50:51;7.49;75.44
47434;SHT31;33184;48.774;8.918;2023-04-27T00:56:12;7.48;75.36
47434;SHT31;33184;48.774;8.918;2023-04-27T01:01:32;7.48;75.76
47434;SHT31;33184;48.774;8.918;2023-04-27T01:06:53;7.49;75.43
47434;SHT31;33184;48.774;8.918;2023-04-27T01:12:14;7.42;75.51
47434;SHT31;33184;48.774;8.918;2023-04-27T01:17:35;7.41;75.67
47434;SHT31;33184;48.774;8.918;2023-04-27T01:22:58;7.42;75.65
47434;SHT31;33184;48.774;8.918;2023-04-27T01:28:19;7.35;75.05
47434;SHT31;33184;48.774;8.918;2023-04-27T01:33:40;7.31;74.63
47434;SHT31;33184;48.774;8.918;2023-04-27T01:39:00;7.32;75.14
47434;SHT31;33184;48.774;8.918;2023-04-27T01:44:21;7.32;75.08
47434;SHT31;33184;48.774;8.918;2023-04-27T01:49:43;7.30;75.69
47434;SHT31;33184;48.774;8.918;2023-04-27T01:55:04;7.25;75.49
47434;SHT31;33184;48.774;8.918;2023-04-27T02:00:26;7.24;76.28
47434;SHT31;33184;48.774;8.918;2023-04-27T02:05:46;7.18;77.10
47434;SHT31;33184;48.774;8.918;2023-04-27T02:11:07;7.14;77.08
47434;SHT31;33184;48.774;8.918;2023-04-27T02:16:28;6.96;76.92
47434;SHT31;33184;48.774;8.918;2023-04-27T02:21:49;6.90;77.40
47434;SHT31;33184;48.774;8.918;2023-04-27T02:27:10;6.97;77.05
47434;SHT31;33184;48.774;8.918;2023-04-27T03:19:25;6.65;79.04
47434;SHT31;33184;48.774;8.918;2023-04-27T03:24:45;6.70;78.64
47434;SHT31;33184;48.774;8.918;2023-04-27T03:30:06;6.76;78.59
47434;SHT31;33184;48.774;8.918;2023-04-27T03:35:27;6.77;78.63
47434;SHT31;33184;48.774;8.918;2023-04-27T03:40:47;6.76;78.12
47434;SHT31;33184;48.774;8.918;2023-04-27T03:46:08;6.81;78.37
47434;SHT31;33184;48.774;8.918;2023-04-27T03:51:29;6.80;77.74
47434;SHT31;33184;48.774;8.918;2023-04-27T03:56:53;6.80;77.70
47434;SHT31;33184;48.774;8.918;2023-04-27T04:02:14;6.77;77.46
47434;SHT31;33184;48.774;8.918;2023-04-27T04:07:35;6.70;77.53
47434;SHT31;33184;48.774;8.918;2023-04-27T04:12:56;6.69;77.11
47434;SHT31;33184;48.774;8.918;2023-04-27T04:18:17;6.69;77.23
47434;SHT31;33184;48.774;8.918;2023-04-27T04:23:37;6.65;77.12
47434;SHT31;33184;48.774;8.918;2023-04-27T04:29:00;6.63;77.48
47434;SHT31;33184;48.774;8.918;2023-04-27T04:34:21;6.66;77.80
47434;SHT31;33184;48.774;8.918;2023-04-27T04:39:43;6.73;77.73
47434;SHT31;33184;48.774;8.918;2023-04-27T04:45:04;6.77;77.79
47434;SHT31;33184;48.774;8.918;2023-04-27T04:50:25;6.72;78.51
47434;SHT31;33184;48.774;8.918;2023-04-27T04:55:46;6.70;78.66
47434;SHT31;33184;48.774;8.918;2023-04-27T05:01:07;6.75;78.66
47434;SHT31;33184;48.774;8.918;2023-04-27T05:06:27;6.77;78.53
47434;SHT31;33184;48.774;8.918;2023-04-27T05:11:48;6.81;78.66
47434;SHT31;33184;48.774;8.918;2023-04-27T05:17:09;6.81;78.99
47434;SHT31;33184;48.774;8.918;2023-04-27T05:22:29;6.81;79.25
47434;SHT31;33184;48.774;8.918;2023-04-27T05:27:50;6.89;79.26
47434;SHT31;33184;48.774;8.918;2023-04-27T05:33:10;6.93;79.16
47434;SHT31;33184;48.774;8.918;2023-04-27T05:38:31;6.99;78.71
47434;SHT31;33184;48.774;8.918;2023-04-27T05:43:54;7.03;78.05
47434;SHT31;33184;48.774;8.918;2023-04-27T05:49:14;7.14;77.98
47434;SHT31;33184;48.774;8.918;2023-04-27T05:54:35;7.22;78.16
47434;SHT31;33184;48.774;8.918;2023-04-27T05:59:55;7.27;78.14
47434;SHT31;33184;48.774;8.918;2023-04-27T06:05:16;7.28;78.23
47434;SHT31;33184;48.774;8.918;2023-04-27T06:10:40;7.31;78.18
47434;SHT31;33184;48.774;8.918;2023-04-27T06:16:00;7.41;77.55
47434;SHT31;33184;48.774;8.918;2023-04-27T06:21:21;7.56;77.42
47434;SHT31;33184;48.774;8.918;2023-04-27T06:26:41;7.74;76.75
47434;SHT31;33184;48.774;8.918;2023-04-27T06:32:04;7.87;76.79
47434;SHT31;33184;48.774;8.918;2023-04-27T06:37:25;7.90;75.38
47434;SHT31;33184;48.774;8.918;2023-04-27T06:42:46;8.05;75.52
47434;SHT31;33184;48.774;8.918;2023-04-27T06:48:07;8.21;76.01
47434;SHT31;33184;48.774;8.918;2023-04-27T06:53:27;8.48;75.42
47434;SHT31;33184;48.774;8.918;2023-04-27T06:58:48;8.58;73.74
47434;SHT31;33184;48.774;8.918;2023-04-27T07:04:08;8.78;73.08
47434;SHT31;33184;48.774;8.918;2023-04-27T07:09:29;9.05;71.89
47434;SHT31;33184;48.774;8.918;2023-04-27T07:14:49;9.33;71.64
47434;SHT31;33184;48.774;8.918;2023-04-27T07:20:10;9.48;70.60
47434;SHT31;33184;48.774;8.918;2023-04-27T07:25:32;9.53;70.08
47434;SHT31;33184;48.774;8.918;2023-04-27T07:30:53;9.70;69.07
47434;SHT31;33184;48.774;8.918;2023-04-27T07:36:13;9.91;66.79
47434;SHT31;33184;48.774;8.918;2023-04-27T07:41:34;10.15;64.52
47434;SHT31;33184;48.774;8.918;2023-04-27T07:46:54;10.41;63.92
47434;SHT31;33184;48.774;8.918;2023-04-27T07:52:17;10.45;63.32
47434;SHT31;33184;48.774;8.918;2023-04-27T07:57:38;10.71;62.26
47434;SHT31;33184;48.774;8.918;2023-04-27T08:02:58;10.80;61.52
47434;SHT31;33184;48.774;8.918;2023-04-27T08:08:19;10.99;60.27
47434;SHT31;33184;48.774;8.918;2023-04-27T08:13:40;11.17;58.34
47434;SHT31;33184;48.774;8.918;2023-04-27T08:19:00;11.55;56.73
47434;SHT31;33184;48.774;8.918;2023-04-27T08:24:21;11.61;52.54
47434;SHT31;33184;48.774;8.918;2023-04-27T08:29:45;11.61;52.50
47434;SHT31;33184;48.774;8.918;2023-04-27T08:35:09;11.71;54.17
47434;SHT31;33184;48.774;8.918;2023-04-27T08:40:29;11.95;52.96
47434;SHT31;33184;48.774;8.918;2023-04-27T08:45:50;12.22;51.76
47434;SHT31;33184;48.774;8.918;2023-04-27T08:51:13;12.39;52.27
47434;SHT31;33184;48.774;8.918;2023-04-27T08:56:34;12.43;51.22
47434;SHT31;33184;48.774;8.918;2023-04-27T09:01:54;12.74;52.22
47434;SHT31;33184;48.774;8.918;2023-04-27T09:07:17;13.10;51.97
47434;SHT31;33184;48.774;8.918;2023-04-27T09:12:37;13.35;49.46
47434;SHT31;33184;48.774;8.918;2023-04-27T09:17:58;13.38;49.19
47434;SHT31;33184;48.774;8.918;2023-04-27T09:23:25;13.32;48.84
47434;SHT31;33184;48.774;8.918;2023-04-27T09:28:50;13.35;49.06
47434;SHT31;33184;48.774;8.918;2023-04-27T09:34:11;13.36;45.95
47434;SHT31;33184;48.774;8.918;2023-04-27T09:39:31;13.40;46.40
47434;SHT31;33184;48.774;8.918;2023-04-27T09:44:53;13.59;48.12
47434;SHT31;33184;48.774;8.918;2023-04-27T09:50:14;13.97;47.52
47434;SHT31;33184;48.774;8.918;2023-04-27T10:01:44;14.50;47.81
47434;SHT31;33184;48.774;8.918;2023-04-27T10:07:10;14.68;48.21
47434;SHT31;33184;48.774;8.918;2023-04-27T10:12:33;14.75;46.42
47434;SHT31;33184;48.774;8.918;2023-04-27T10:18:03;14.54;46.03
47434;SHT31;33184;48.774;8.918;2023-04-27T10:23:27;14.61;47.72
47434;SHT31;33184;48.774;8.918;2023-04-27T10:29:04;15.07;46.89
47434;SHT31;33184;48.774;8.918;2023-04-27T10:34:26;15.36;47.89
47434;SHT31;33184;48.774;8.918;2023-04-27T10:39:47;15.77;44.40
47434;SHT31;33184;48.774;8.918;2023-04-27T10:45:08;16.28;45.32
47434;SHT31;33184;48.774;8.918;2023-04-27T10:50:28;16.35;44.42
47434;SHT31;33184;48.774;8.918;2023-04-27T10:55:54;16.26;44.44
47434;SHT31;33184;48.774;8.918;2023-04-27T11:01:25;16.31;44.94
47434;SHT31;33184;48.774;8.918;2023-04-27T11:06:46;16.72;45.52
47434;SHT31;33184;48.774;8.918;2023-04-27T11:12:07;16.80;42.91
47434;SHT31;33184;48.774;8.918;2023-04-27T11:17:31;16.89;45.10
47434;SHT31;33184;48.774;8.918;2023-04-27T11:22:51;17.34;44.07
47434;SHT31;33184;48.774;8.918;2023-04-27T11:28:19;18.08;42.75
47434;SHT31;33184;48.774;8.918;2023-04-27T11:33:47;18.16;44.35
47434;SHT31;33184;48.774;8.918;2023-04-27T11:39:07;18.77;40.65
47434;SHT31;33184;48.774;8.918;2023-04-27T11:44:32;18.16;39.82
47434;SHT31;33184;48.774;8.918;2023-04-27T11:49:57;17.79;41.73
47434;SHT31;33184;48.774;8.918;2023-04-27T11:55:20;17.64;42.61
47434;SHT31;33184;48.774;8.918;2023-04-27T12:00:41;17.34;42.48
47434;SHT31;33184;48.774;8.918;2023-04-27T12:06:01;17.04;43.88
47434;SHT31;33184;48.774;8.918;2023-04-27T12:11:26;17.20;42.10
47434;SHT31;33184;48.774;8.918;2023-04-27T12:16:49;17.96;41.19
47434;SHT31;33184;48.774;8.918;2023-04-27T12:22:10;18.05;40.75
47434;SHT31;33184;48.774;8.918;2023-04-27T12:27:31;17.18;41.63
47434;SHT31;33184;48.774;8.918;2023-04-27T12:32:51;17.03;43.52
47434;SHT31;33184;48.774;8.918;2023-04-27T12:38:12;16.51;42.98
47434;SHT31;33184;48.774;8.918;2023-04-27T12:43:32;16.51;42.99
47434;SHT31;33184;48.774;8.918;2023-04-27T12:48:55;16.74;43.71
47434;SHT31;33184;48.774;8.918;2023-04-27T12:54:16;16.67;43.58
47434;SHT31;33184;48.774;8.918;2023-04-27T12:59:37;16.51;42.59
47434;SHT31;33184;48.774;8.918;2023-04-27T13:04:58;16.64;43.77
47434;SHT31;33184;48.774;8.918;2023-04-27T13:10:18;17.27;43.53
47434;SHT31;33184;48.774;8.918;2023-04-27T13:15:39;18.73;40.87
47434;SHT31;33184;48.774;8.918;2023-04-27T13:21:01;18.77;41.06
47434;SHT31;33184;48.774;8.918;2023-04-27T13:26:21;18.85;39.69
47434;SHT31;33184;48.774;8.918;2023-04-27T13:31:42;18.99;39.14
47434;SHT31;33184;48.774;8.918;2023-04-27T13:37:03;18.14;41.31
47434;SHT31;33184;48.774;8.918;2023-04-27T13:42:23;18.22;39.51
47434;SHT31;33184;48.774;8.918;2023-04-27T13:47:48;17.98;39.90
47434;SHT31;33184;48.774;8.918;2023-04-27T13:53:09;17.95;40.83
47434;SHT31;33184;48.774;8.918;2023-04-27T13:58:30;18.34;41.21
47434;SHT31;33184;48.774;8.918;2023-04-27T14:03:51;19.19;39.53
47434;SHT31;33184;48.774;8.918;2023-04-27T14:09:11;19.48;39.45
47434;SHT31;33184;48.774;8.918;2023-04-27T14:14:32;19.58;39.03
47434;SHT31;33184;48.774;8.918;2023-04-27T14:19:52;19.29;38.07
47434;SHT31;33184;48.774;8.918;2023-04-27T14:25:13;18.67;39.88
47434;SHT31;33184;48.774;8.918;2023-04-27T14:30:33;18.63;39.71
47434;SHT31;33184;48.774;8.918;2023-04-27T14:35:54;18.50;39.74
47434;SHT31;33184;48.774;8.918;2023-04-27T14:41:15;18.14;40.67
47434;SHT31;33184;48.774;8.918;2023-04-27T14:46:35;19.63;37.83
47434;SHT31;33184;48.774;8.918;2023-04-27T14:51:56;18.95;38.07
47434;SHT31;33184;48.774;8.918;2023-04-27T14:57:17;19.52;38.98
47434;SHT31;33184;48.774;8.918;2023-04-27T15:02:38;19.22;38.53
47434;SHT31;33184;48.774;8.918;2023-04-27T15:07:58;18.52;38.97
47434;SHT31;33184;48.774;8.918;2023-04-27T15:13:20;17.92;39.80
47434;SHT31;33184;48.774;8.918;2023-04-27T15:18:41;18.06;41.83
47434;SHT31;33184;48.774;8.918;2023-04-27T15:24:02;18.37;40.76
47434;SHT31;33184;48.774;8.918;2023-04-27T15:29:23;17.96;40.99
47434;SHT31;33184;48.774;8.918;2023-04-27T15:34:44;17.79;41.25
47434;SHT31;33184;48.774;8.918;2023-04-27T15:40:05;18.00;41.92
47434;SHT31;33184;48.774;8.918;2023-04-27T15:45:29;18.80;41.30
47434;SHT31;33184;48.774;8.918;2023-04-27T15:50:50;19.67;37.72
47434;SHT31;33184;48.774;8.918;2023-04-27T15:56:11;19.25;38.71
47434;SHT31;33184;48.774;8.918;2023-04-27T16:01:31;19.12;39.50
47434;SHT31;33184;48.774;8.918;2023-04-27T16:06:52;18.71;39.92
47434;SHT31;33184;48.774;8.918;2023-04-27T16:12:12;18.40;42.14
47434;SHT31;33184;48.774;8.918;2023-04-27T16:17:33;19.01;40.56
47434;SHT31;33184;48.774;8.918;2023-04-27T16:22:57;19.58;38.62
47434;SHT31;33184;48.774;8.918;2023-04-27T16:28:18;19.86;38.30
47434;SHT31;33184;48.774;8.918;2023-04-27T16:33:39;19.18;39.31
47434;SHT31;33184;48.774;8.918;2023-04-27T16:39:00;18.95;39.45
47434;SHT31;33184;48.774;8.918;2023-04-27T16:44:24;19.06;39.65
47434;SHT31;33184;48.774;8.918;2023-04-27T16:49:45;18.88;39.89
47434;SHT31;33184;48.774;8.918;2023-04-27T16:55:06;18.47;40.66
47434;SHT31;33184;48.774;8.918;2023-04-27T17:00:27;18.23;41.29
47434;SHT31;33184;48.774;8.918;2023-04-27T17:05:48;17.93;42.04
47434;SHT31;33184;48.774;8.918;2023-04-27T17:11:09;17.74;42.20
47434;SHT31;33184;48.774;8.918;2023-04-27T17:16:30;17.59;42.40
47434;SHT31;33184;48.774;8.918;2023-04-27T17:21:51;17.59;42.49
47434;SHT31;33184;48.774;8.918;2023-04-27T17:27:11;17.37;42.97
47434;SHT31;33184;48.774;8.918;2023-04-27T17:32:32;17.32;43.46
47434;SHT31;33184;48.774;8.918;2023-04-27T17:37:52;17.23;44.26
47434;SHT31;33184;48.774;8.918;2023-04-27T17:43:13;17.14;44.53
47434;SHT31;33184;48.774;8.918;2023-04-27T17:48:33;17.18;44.96
47434;SHT31;33184;48.774;8.918;2023-04-27T17:53:54;16.80;46.00
47434;SHT31;33184;48.774;8.918;2023-04-27T17:59:14;16.28;47.73
47434;SHT31;33184;48.774;8.918;2023-04-27T18:04:35;16.01;48.26
47434;SHT31;33184;48.774;8.918;2023-04-27T18:09:56;15.84;48.71
47434;SHT31;33184;48.774;8.918;2023-04-27T18:15:18;15.63;49.66
47434;SHT31;33184;48.774;8.918;2023-04-27T18:20:39;15.53;50.28
47434;SHT31;33184;48.774;8.918;2023-04-27T18:26:04;15.42;50.42
47434;SHT31;33184;48.774;8.918;2023-04-27T18:31:25;15.32;51.08
47434;SHT31;33184;48.774;8.918;2023-04-27T18:36:45;15.15;51.39
47434;SHT31;33184;48.774;8.918;2023-04-27T18:42:09;14.96;51.91
47434;SHT31;33184;48.774;8.918;2023-04-27T18:47:29;14.85;52.15
47434;SHT31;33184;48.774;8.918;2023-04-27T18:52:50;14.79;52.32
47434;SHT31;33184;48.774;8.918;2023-04-27T18:58:10;14.67;52.90
47434;SHT31;33184;48.774;8.918;2023-04-27T19:03:31;14.65;53.95
47434;SHT31;33184;48.774;8.918;2023-04-27T19:08:51;14.61;55.07
47434;SHT31;33184;48.774;8.918;2023-04-27T19:14:12;14.52;55.11
47434;SHT31;33184;48.774;8.918;2023-04-27T19:19:33;14.41;55.47
47434;SHT31;33184;48.774;8.918;2023-04-27T19:24:54;14.21;55.98
47434;SHT31;33184;48.774;8.918;2023-04-27T19:30:14;14.04;56.52
47434;SHT31;33184;48.774;8.918;2023-04-27T19:35:35;14.03;57.10
47434;SHT31;33184;48.774;8.918;2023-04-27T19:40:56;13.99;58.63
47434;SHT31;33184;48.774;8.918;2023-04-27T19:46:16;13.86;59.69
47434;SHT31;33184;48.774;8.918;2023-04-27T19:51:37;13.76;59.79
47434;SHT31;33184;48.774;8.918;2023-04-27T19:57:00;13.62;60.21
47434;SHT31;33184;48.774;8.918;2023-04-27T20:35:45;12.91;63.37
47434;SHT31;33184;48.774;8.918;2023-04-27T20:41:06;12.81;63.79
47434;SHT31;33184;48.774;8.918;2023-04-27T20:46:27;12.81;64.01
47434;SHT31;33184;48.774;8.918;2023-04-27T20:51:49;12.78;64.25
47434;SHT31;33184;48.774;8.918;2023-04-27T20:57:09;12.73;64.23
47434;SHT31;33184;48.774;8.918;2023-04-27T21:02:33;12.68;65.35
47434;SHT31;33184;48.774;8.918;2023-04-27T22:07:48;11.52;69.24
47434;SHT31;33184;48.774;8.918;2023-04-27T22:13:27;11.57;68.92
47434;SHT31;33184;48.774;8.918;2023-04-27T22:25:23;11.31;69.38
47434;SHT31;33184;48.774;8.918;2023-04-27T22:30:43;11.25;69.98
47434;SHT31;33184;48.774;8.918;2023-04-27T22:36:04;11.20;70.71
47434;SHT31;33184;48.774;8.918;2023-04-27T22:41:25;11.11;70.67
47434;SHT31;33184;48.774;8.918;2023-04-27T22:46:45;11.10;70.65
47434;SHT31;33184;48.774;8.918;2023-04-27T22:52:06;10.94;70.72
47434;SHT31;33184;48.774;8.918;2023-04-27T22:57:27;10.89;71.25
47434;SHT31;33184;48.774;8.918;2023-04-27T23:02:48;10.82;71.40
47434;SHT31;33184;48.774;8.918;2023-04-27T23:08:08;10.77;71.60
47434;SHT31;33184;48.774;8.918;2023-04-27T23:13:29;10.82;71.63
47434;SHT31;33184;48.774;8.918;2023-04-27T23:18:51;10.86;72.23
47434;SHT31;33184;48.774;8.918;2023-04-27T23:24:12;10.82;72.07
47434;SHT31;33184;48.774;8.918;2023-04-27T23:29:32;10.87;72.39
47434;SHT31;33184;48.774;8.918;2023-04-27T23:34:53;10.92;72.65
47434;SHT31;33184;48.774;8.918;2023-04-27T23:40:14;10.73;72.43
47434;SHT31;33184;48.774;8.918;2023-04-27T23:45:34;10.69;72.95
47434;SHT31;33184;48.774;8.918;2023-04-27T23:50:59;10.86;72.40
47434;SHT31;33184;48.774;8.918;2023-04-27T23:56:20;10.90;72.47
